sensor_id;sensor_type;location;lat;lon;timestamp;temperature;humidity
59847;DHT22;45728;48.788;2.302;2024-02-26T00:00:05;9.10;99.90
59847;DHT22;45728;48.788;2.302;2024-02-26T00:02:36;9.10;99.90
59847;DHT22;45728;48.788;2.302;2024-02-26T00:05:07;9.10;99.90
59847;DHT22;45728;48.788;2.302;2024-02-26T00:07:34;9.10;99.90
59847;DHT22;45728;48.788;2.302;2024-02-26T00:10:00;9.20;99.90
59847;DHT22;45728;48.788;2.302;2024-02-26T00:12:26;9.10;99.90
59847;DHT22;45728;48.788;2.302;2024-02-26T00:14:52;9.10;99.90
59847;DHT22;45728;48.788;2.302;2024-02-26T00:17:19;9.10;99.90
59847;DHT22;45728;48.788;2.302;2024-02-26T00:19:45;9.10;99.90
59847;DHT22;45728;48.788;2.302;2024-02-26T00:22:11;9.10;99.90
59847;DHT22;45728;48.788;2.302;2024-02-26T00:24:37;9.10;99.90
59847;DHT22;45728;48.788;2.302;2024-02-26T00:27:05;9.20;99.90
59847;DHT22;45728;48.788;2.302;2024-02-26T00:29:31;9.20;99.90
59847;DHT22;45728;48.788;2.302;2024-02-26T00:31:58;9.20;99.90
59847;DHT22;45728;48.788;2.302;2024-02-26T00:34:24;9.20;99.90
59847;DHT22;45728;48.788;2.302;2024-02-26T00:36:50;9.20;99.90
59847;DHT22;45728;48.788;2.302;2024-02-26T00:39:16;9.30;99.90
59847;DHT22;45728;48.788;2.302;2024-02-26T00:41:42;9.30;99.90
59847;DHT22;45728;48.788;2.302;2024-02-26T00:44:08;9.30;99.90
59847;DHT22;45728;48.788;2.302;2024-02-26T00:46:35;9.30;99.90
59847;DHT22;45728;48.788;2.302;2024-02-26T00:49:01;9.30;99.90
59847;DHT22;45728;48.788;2.302;2024-02-26T00:51:27;9.30;99.90
59847;DHT22;45728;48.788;2.302;2024-02-26T00:53:54;9.30;99.90
59847;DHT22;45728;48.788;2.302;2024-02-26T00:56:21;9.30;99.90
59847;DHT22;45728;48.788;2.302;2024-02-26T00:58:47;9.30;99.90
59847;DHT22;45728;48.788;2.302;2024-02-26T01:01:14;9.30;99.90
59847;DHT22;45728;48.788;2.302;2024-02-26T01:03:40;9.30;99.90
59847;DHT22;45728;48.788;2.302;2024-02-26T01:06:06;9.30;99.90
59847;DHT22;45728;48.788;2.302;2024-02-26T01:08:32;9.30;99.90
59847;DHT22;45728;48.788;2.302;2024-02-26T01:10:58;9.30;99.90
59847;DHT22;45728;48.788;2.302;2024-02-26T01:13:24;9.30;99.90
59847;DHT22;45728;48.788;2.302;2024-02-26T01:15:50;9.30;99.90
59847;DHT22;45728;48.788;2.302;2024-02-26T01:18:16;9.30;99.90
59847;DHT22;45728;48.788;2.302;2024-02-26T01:20:42;9.40;99.90
59847;DHT22;45728;48.788;2.302;2024-02-26T01:23:08;9.40;99.90
59847;DHT22;45728;48.788;2.302;2024-02-26T01:25:34;9.40;99.90
59847;DHT22;45728;48.788;2.302;2024-02-26T01:28:00;9.40;99.90
59847;DHT22;45728;48.788;2.302;2024-02-26T01:30:26;9.50;99.90
59847;DHT22;45728;48.788;2.302;2024-02-26T01:32:52;9.50;99.90
59847;DHT22;45728;48.788;2.302;2024-02-26T01:35:18;9.40;99.90
59847;DHT22;45728;48.788;2.302;2024-02-26T01:37:45;9.50;99.90
59847;DHT22;45728;48.788;2.302;2024-02-26T01:40:11;9.40;99.90
59847;DHT22;45728;48.788;2.302;2024-02-26T01:42:38;9.50;99.90
59847;DHT22;45728;48.788;2.302;2024-02-26T01:45:05;9.50;99.90
59847;DHT22;45728;48.788;2.302;2024-02-26T01:47:33;9.50;99.90
59847;DHT22;45728;48.788;2.302;2024-02-26T01:49:59;9.40;99.90
59847;DHT22;45728;48.788;2.302;2024-02-26T01:52:25;9.40;99.90
59847;DHT22;45728;48.788;2.302;2024-02-26T01:54:52;9.40;99.90
59847;DHT22;45728;48.788;2.302;2024-02-26T01:57:18;9.40;99.90
59847;DHT22;45728;48.788;2.302;2024-02-26T01:59:44;9.40;99.90
59847;DHT22;45728;48.788;2.302;2024-02-26T02:02:11;9.40;99.90
59847;DHT22;45728;48.788;2.302;2024-02-26T02:04:39;9.50;99.90
59847;DHT22;45728;48.788;2.302;2024-02-26T02:07:05;9.40;99.90
59847;DHT22;45728;48.788;2.302;2024-02-26T02:09:32;9.40;99.90
59847;DHT22;45728;48.788;2.302;2024-02-26T02:11:58;9.40;99.90
59847;DHT22;45728;48.788;2.302;2024-02-26T02:14:25;9.40;99.90
59847;DHT22;45728;48.788;2.302;2024-02-26T02:16:51;9.50;99.90
59847;DHT22;45728;48.788;2.302;2024-02-26T02:19:17;9.40;99.90
59847;DHT22;45728;48.788;2.302;2024-02-26T02:21:43;9.50;99.90
59847;DHT22;45728;48.788;2.302;2024-02-26T02:24:09;9.40;99.90
59847;DHT22;45728;48.788;2.302;2024-02-26T02:26:35;9.40;99.90
59847;DHT22;45728;48.788;2.302;2024-02-26T02:29:02;9.40;99.90
59847;DHT22;45728;48.788;2.302;2024-02-26T02:31:28;9.40;99.90
59847;DHT22;45728;48.788;2.302;2024-02-26T02:33:54;9.40;99.90
59847;DHT22;45728;48.788;2.302;2024-02-26T02:36:53;9.40;99.90
59847;DHT22;45728;48.788;2.302;2024-02-26T02:39:19;9.40;99.90
59847;DHT22;45728;48.788;2.302;2024-02-26T02:41:45;9.30;99.90
59847;DHT22;45728;48.788;2.302;2024-02-26T02:44:11;9.40;99.90
59847;DHT22;45728;48.788;2.302;2024-02-26T02:46:38;9.30;99.90
59847;DHT22;45728;48.788;2.302;2024-02-26T02:49:04;9.40;99.90
59847;DHT22;45728;48.788;2.302;2024-02-26T02:51:33;9.40;99.90
59847;DHT22;45728;48.788;2.302;2024-02-26T02:53:59;9.40;99.90
59847;DHT22;45728;48.788;2.302;2024-02-26T02:56:25;9.40;99.90
59847;DHT22;45728;48.788;2.302;2024-02-26T02:58:51;9.40;99.90
59847;DHT22;45728;48.788;2.302;2024-02-26T03:01:17;9.40;99.90
59847;DHT22;45728;48.788;2.302;2024-02-26T03:03:43;9.40;99.90
59847;DHT22;45728;48.788;2.302;2024-02-26T03:06:09;9.40;99.90
59847;DHT22;45728;48.788;2.302;2024-02-26T03:08:35;9.40;99.90
59847;DHT22;45728;48.788;2.302;2024-02-26T03:11:04;9.40;99.90
59847;DHT22;45728;48.788;2.302;2024-02-26T03:13:30;9.40;99.90
59847;DHT22;45728;48.788;2.302;2024-02-26T03:15:56;9.30;99.90
59847;DHT22;45728;48.788;2.302;2024-02-26T03:18:23;9.30;99.90
59847;DHT22;45728;48.788;2.302;2024-02-26T03:20:49;9.30;99.90
59847;DHT22;45728;48.788;2.302;2024-02-26T03:23:15;9.30;99.90
59847;DHT22;45728;48.788;2.302;2024-02-26T03:25:44;9.30;99.90
59847;DHT22;45728;48.788;2.302;2024-02-26T03:28:12;9.30;99.90
59847;DHT22;45728;48.788;2.302;2024-02-26T03:30:38;9.30;99.90
59847;DHT22;45728;48.788;2.302;2024-02-26T03:33:04;9.30;99.90
59847;DHT22;45728;48.788;2.302;2024-02-26T03:35:30;9.30;99.90
59847;DHT22;45728;48.788;2.302;2024-02-26T03:37:56;9.30;99.90
59847;DHT22;45728;48.788;2.302;2024-02-26T03:40:22;9.30;99.90
59847;DHT22;45728;48.788;2.302;2024-02-26T03:42:48;9.30;99.90
59847;DHT22;45728;48.788;2.302;2024-02-26T03:45:14;9.30;99.90
59847;DHT22;45728;48.788;2.302;2024-02-26T03:47:40;9.30;99.90
59847;DHT22;45728;48.788;2.302;2024-02-26T03:50:07;9.30;99.90
59847;DHT22;45728;48.788;2.302;2024-02-26T03:52:33;9.20;99.90
59847;DHT22;45728;48.788;2.302;2024-02-26T03:55:00;9.20;99.90
59847;DHT22;45728;48.788;2.302;2024-02-26T03:57:26;9.20;99.90
59847;DHT22;45728;48.788;2.302;2024-02-26T03:59:52;9.20;99.90
59847;DHT22;45728;48.788;2.302;2024-02-26T04:02:18;9.20;99.90
59847;DHT22;45728;48.788;2.302;2024-02-26T04:04:46;9.20;99.90
59847;DHT22;45728;48.788;2.302;2024-02-26T04:07:12;9.20;99.90
59847;DHT22;45728;48.788;2.302;2024-02-26T04:09:39;9.20;99.90
59847;DHT22;45728;48.788;2.302;2024-02-26T04:12:05;9.10;99.90
59847;DHT22;45728;48.788;2.302;2024-02-26T04:14:31;9.20;99.90
59847;DHT22;45728;48.788;2.302;2024-02-26T04:16:57;9.20;99.90
59847;DHT22;45728;48.788;2.302;2024-02-26T04:19:23;9.20;99.90
59847;DHT22;45728;48.788;2.302;2024-02-26T04:21:49;9.20;99.90
59847;DHT22;45728;48.788;2.302;2024-02-26T04:24:15;9.20;99.90
59847;DHT22;45728;48.788;2.302;2024-02-26T04:26:41;9.20;99.90
59847;DHT22;45728;48.788;2.302;2024-02-26T04:29:07;9.20;99.90
59847;DHT22;45728;48.788;2.302;2024-02-26T04:31:33;9.20;99.90
59847;DHT22;45728;48.788;2.302;2024-02-26T04:34:00;9.20;99.90
59847;DHT22;45728;48.788;2.302;2024-02-26T04:36:26;9.20;99.90
59847;DHT22;45728;48.788;2.302;2024-02-26T04:38:52;9.20;99.90
59847;DHT22;45728;48.788;2.302;2024-02-26T04:41:20;9.20;99.90
59847;DHT22;45728;48.788;2.302;2024-02-26T04:43:46;9.20;99.90
59847;DHT22;45728;48.788;2.302;2024-02-26T04:46:12;9.20;99.90
59847;DHT22;45728;48.788;2.302;2024-02-26T04:48:38;9.20;99.90
59847;DHT22;45728;48.788;2.302;2024-02-26T04:51:04;9.20;99.90
59847;DHT22;45728;48.788;2.302;2024-02-26T04:53:31;9.20;99.90
59847;DHT22;45728;48.788;2.302;2024-02-26T04:55:57;9.20;99.90
59847;DHT22;45728;48.788;2.302;2024-02-26T04:58:23;9.20;99.90
59847;DHT22;45728;48.788;2.302;2024-02-26T05:00:49;9.20;99.90
59847;DHT22;45728;48.788;2.302;2024-02-26T05:03:15;9.20;99.90
59847;DHT22;45728;48.788;2.302;2024-02-26T05:05:43;9.20;99.90
59847;DHT22;45728;48.788;2.302;2024-02-26T05:08:09;9.20;99.90
59847;DHT22;45728;48.788;2.302;2024-02-26T05:10:36;9.20;99.90
59847;DHT22;45728;48.788;2.302;2024-02-26T05:13:05;9.10;99.90
59847;DHT22;45728;48.788;2.302;2024-02-26T05:15:31;9.20;99.90
59847;DHT22;45728;48.788;2.302;2024-02-26T05:17:58;9.10;99.90
59847;DHT22;45728;48.788;2.302;2024-02-26T05:20:25;9.10;99.90
59847;DHT22;45728;48.788;2.302;2024-02-26T05:22:51;9.10;99.90
59847;DHT22;45728;48.788;2.302;2024-02-26T05:25:17;9.10;99.90
59847;DHT22;45728;48.788;2.302;2024-02-26T05:27:44;9.10;99.90
59847;DHT22;45728;48.788;2.302;2024-02-26T05:30:11;9.00;99.90
59847;DHT22;45728;48.788;2.302;2024-02-26T05:32:37;9.00;99.90
59847;DHT22;45728;48.788;2.302;2024-02-26T05:35:04;9.10;99.90
59847;DHT22;45728;48.788;2.302;2024-02-26T05:37:30;9.00;99.90
59847;DHT22;45728;48.788;2.302;2024-02-26T05:39:56;9.00;99.90
59847;DHT22;45728;48.788;2.302;2024-02-26T05:42:22;9.00;99.90
59847;DHT22;45728;48.788;2.302;2024-02-26T05:44:48;9.00;99.90
59847;DHT22;45728;48.788;2.302;2024-02-26T05:47:14;9.00;99.90
59847;DHT22;45728;48.788;2.302;2024-02-26T05:49:40;9.00;99.90
59847;DHT22;45728;48.788;2.302;2024-02-26T05:52:06;9.10;99.90
59847;DHT22;45728;48.788;2.302;2024-02-26T05:54:32;9.10;99.90
59847;DHT22;45728;48.788;2.302;2024-02-26T05:56:58;9.00;99.90
59847;DHT22;45728;48.788;2.302;2024-02-26T05:59:25;9.00;99.90
59847;DHT22;45728;48.788;2.302;2024-02-26T06:01:51;9.10;99.90
59847;DHT22;45728;48.788;2.302;2024-02-26T06:04:17;9.00;99.90
59847;DHT22;45728;48.788;2.302;2024-02-26T06:06:46;9.00;99.90
59847;DHT22;45728;48.788;2.302;2024-02-26T06:09:12;9.00;99.90
59847;DHT22;45728;48.788;2.302;2024-02-26T06:11:38;9.00;99.90
59847;DHT22;45728;48.788;2.302;2024-02-26T06:14:05;9.00;99.90
59847;DHT22;45728;48.788;2.302;2024-02-26T06:16:31;9.00;99.90
59847;DHT22;45728;48.788;2.302;2024-02-26T06:18:57;9.00;99.90
59847;DHT22;45728;48.788;2.302;2024-02-26T06:21:23;9.00;99.90
59847;DHT22;45728;48.788;2.302;2024-02-26T06:23:50;9.00;99.90
59847;DHT22;45728;48.788;2.302;2024-02-26T06:26:16;9.00;99.90
59847;DHT22;45728;48.788;2.302;2024-02-26T06:28:42;9.00;99.90
59847;DHT22;45728;48.788;2.302;2024-02-26T06:31:08;9.00;99.90
59847;DHT22;45728;48.788;2.302;2024-02-26T06:33:34;9.00;99.90
59847;DHT22;45728;48.788;2.302;2024-02-26T06:36:00;9.00;99.90
59847;DHT22;45728;48.788;2.302;2024-02-26T06:38:26;9.00;99.90
59847;DHT22;45728;48.788;2.302;2024-02-26T06:40:53;9.00;99.90
59847;DHT22;45728;48.788;2.302;2024-02-26T06:43:19;9.00;99.90
59847;DHT22;45728;48.788;2.302;2024-02-26T06:45:45;9.10;99.90
59847;DHT22;45728;48.788;2.302;2024-02-26T06:48:11;9.10;99.90
59847;DHT22;45728;48.788;2.302;2024-02-26T06:50:37;9.10;99.90
59847;DHT22;45728;48.788;2.302;2024-02-26T06:53:03;9.10;99.90
59847;DHT22;45728;48.788;2.302;2024-02-26T06:55:29;9.10;99.90
59847;DHT22;45728;48.788;2.302;2024-02-26T06:57:55;9.10;99.90
59847;DHT22;45728;48.788;2.302;2024-02-26T07:00:21;9.10;99.90
59847;DHT22;45728;48.788;2.302;2024-02-26T07:02:47;9.10;99.90
59847;DHT22;45728;48.788;2.302;2024-02-26T07:05:13;9.10;99.90
59847;DHT22;45728;48.788;2.302;2024-02-26T07:07:40;9.10;99.90
59847;DHT22;45728;48.788;2.302;2024-02-26T07:10:06;9.10;99.90
59847;DHT22;45728;48.788;2.302;2024-02-26T07:12:33;9.10;99.90
59847;DHT22;45728;48.788;2.302;2024-02-26T07:14:59;9.10;99.90
59847;DHT22;45728;48.788;2.302;2024-02-26T07:17:25;9.10;99.90
59847;DHT22;45728;48.788;2.302;2024-02-26T07:19:51;9.20;99.90
59847;DHT22;45728;48.788;2.302;2024-02-26T07:22:17;9.20;99.90
59847;DHT22;45728;48.788;2.302;2024-02-26T07:24:43;9.10;99.90
59847;DHT22;45728;48.788;2.302;2024-02-26T07:27:09;9.20;99.90
59847;DHT22;45728;48.788;2.302;2024-02-26T07:29:35;9.20;99.90
59847;DHT22;45728;48.788;2.302;2024-02-26T07:32:01;9.20;99.90
59847;DHT22;45728;48.788;2.302;2024-02-26T07:34:27;9.20;99.90
59847;DHT22;45728;48.788;2.302;2024-02-26T07:36:56;9.20;99.90
59847;DHT22;45728;48.788;2.302;2024-02-26T07:39:22;9.30;99.90
59847;DHT22;45728;48.788;2.302;2024-02-26T07:41:48;9.30;99.90
59847;DHT22;45728;48.788;2.302;2024-02-26T07:44:17;9.40;99.90
59847;DHT22;45728;48.788;2.302;2024-02-26T07:46:43;9.40;99.90
59847;DHT22;45728;48.788;2.302;2024-02-26T07:49:09;9.40;99.90
59847;DHT22;45728;48.788;2.302;2024-02-26T07:51:35;9.50;99.90
59847;DHT22;45728;48.788;2.302;2024-02-26T07:54:02;9.50;99.90
59847;DHT22;45728;48.788;2.302;2024-02-26T07:56:28;9.50;99.90
59847;DHT22;45728;48.788;2.302;2024-02-26T07:58:54;9.60;99.90
59847;DHT22;45728;48.788;2.302;2024-02-26T08:01:20;9.60;99.90
59847;DHT22;45728;48.788;2.302;2024-02-26T08:03:46;9.60;99.90
59847;DHT22;45728;48.788;2.302;2024-02-26T08:06:12;9.60;99.90
59847;DHT22;45728;48.788;2.302;2024-02-26T08:08:38;9.70;99.90
59847;DHT22;45728;48.788;2.302;2024-02-26T08:11:04;9.60;99.90
59847;DHT22;45728;48.788;2.302;2024-02-26T08:13:30;9.60;99.90
59847;DHT22;45728;48.788;2.302;2024-02-26T08:15:57;9.70;99.90
59847;DHT22;45728;48.788;2.302;2024-02-26T08:18:23;9.60;99.90
59847;DHT22;45728;48.788;2.302;2024-02-26T08:20:49;9.60;99.90
59847;DHT22;45728;48.788;2.302;2024-02-26T08:23:15;9.60;99.90
59847;DHT22;45728;48.788;2.302;2024-02-26T08:25:41;9.60;99.90
59847;DHT22;45728;48.788;2.302;2024-02-26T08:28:07;9.60;99.90
59847;DHT22;45728;48.788;2.302;2024-02-26T08:30:33;9.60;99.90
59847;DHT22;45728;48.788;2.302;2024-02-26T08:33:00;9.60;99.90
59847;DHT22;45728;48.788;2.302;2024-02-26T08:35:26;9.60;99.90
59847;DHT22;45728;48.788;2.302;2024-02-26T08:37:52;9.60;99.90
59847;DHT22;45728;48.788;2.302;2024-02-26T08:40:18;9.60;99.90
59847;DHT22;45728;48.788;2.302;2024-02-26T08:42:45;9.50;99.90
59847;DHT22;45728;48.788;2.302;2024-02-26T08:45:11;9.60;99.90
59847;DHT22;45728;48.788;2.302;2024-02-26T08:47:38;9.50;99.90
59847;DHT22;45728;48.788;2.302;2024-02-26T08:50:05;9.50;99.90
59847;DHT22;45728;48.788;2.302;2024-02-26T08:52:31;9.40;99.90
59847;DHT22;45728;48.788;2.302;2024-02-26T08:54:57;9.40;99.90
59847;DHT22;45728;48.788;2.302;2024-02-26T08:57:24;9.50;99.90
59847;DHT22;45728;48.788;2.302;2024-02-26T08:59:52;9.50;99.90
59847;DHT22;45728;48.788;2.302;2024-02-26T09:02:18;9.50;99.90
59847;DHT22;45728;48.788;2.302;2024-02-26T09:04:45;9.60;99.90
59847;DHT22;45728;48.788;2.302;2024-02-26T09:07:11;9.60;99.90
59847;DHT22;45728;48.788;2.302;2024-02-26T09:09:37;9.60;99.90
59847;DHT22;45728;48.788;2.302;2024-02-26T09:12:04;9.60;99.90
59847;DHT22;45728;48.788;2.302;2024-02-26T09:14:30;9.60;99.90
59847;DHT22;45728;48.788;2.302;2024-02-26T09:16:56;9.60;99.90
59847;DHT22;45728;48.788;2.302;2024-02-26T09:19:23;9.60;99.90
59847;DHT22;45728;48.788;2.302;2024-02-26T09:21:49;9.60;99.90
59847;DHT22;45728;48.788;2.302;2024-02-26T09:24:15;9.70;99.90
59847;DHT22;45728;48.788;2.302;2024-02-26T09:26:41;9.70;99.90
59847;DHT22;45728;48.788;2.302;2024-02-26T09:29:07;9.70;99.90
59847;DHT22;45728;48.788;2.302;2024-02-26T09:31:34;9.70;99.90
59847;DHT22;45728;48.788;2.302;2024-02-26T09:34:00;9.80;99.90
59847;DHT22;45728;48.788;2.302;2024-02-26T09:36:26;9.80;99.90
59847;DHT22;45728;48.788;2.302;2024-02-26T09:38:52;9.90;99.90
59847;DHT22;45728;48.788;2.302;2024-02-26T09:41:18;9.90;99.90
59847;DHT22;45728;48.788;2.302;2024-02-26T09:43:45;9.90;99.90
59847;DHT22;45728;48.788;2.302;2024-02-26T09:46:14;9.90;99.90
59847;DHT22;45728;48.788;2.302;2024-02-26T09:48:43;10.00;99.90
59847;DHT22;45728;48.788;2.302;2024-02-26T09:51:11;10.00;99.90
59847;DHT22;45728;48.788;2.302;2024-02-26T09:53:38;9.90;99.90
59847;DHT22;45728;48.788;2.302;2024-02-26T09:56:08;9.90;99.90
59847;DHT22;45728;48.788;2.302;2024-02-26T09:58:36;10.00;99.90
59847;DHT22;45728;48.788;2.302;2024-02-26T10:01:06;10.00;99.90
59847;DHT22;45728;48.788;2.302;2024-02-26T10:03:42;10.00;99.90
59847;DHT22;45728;48.788;2.302;2024-02-26T10:06:11;9.90;99.90
59847;DHT22;45728;48.788;2.302;2024-02-26T10:08:37;10.00;99.90
59847;DHT22;45728;48.788;2.302;2024-02-26T10:11:08;10.10;99.90
59847;DHT22;45728;48.788;2.302;2024-02-26T10:13:35;10.20;99.90
59847;DHT22;45728;48.788;2.302;2024-02-26T10:16:02;10.10;99.90
59847;DHT22;45728;48.788;2.302;2024-02-26T10:18:54;10.10;99.90
59847;DHT22;45728;48.788;2.302;2024-02-26T10:21:21;10.30;99.90
59847;DHT22;45728;48.788;2.302;2024-02-26T10:23:48;10.30;99.90
59847;DHT22;45728;48.788;2.302;2024-02-26T10:26:15;10.40;99.90
59847;DHT22;45728;48.788;2.302;2024-02-26T10:28:42;10.40;99.90
59847;DHT22;45728;48.788;2.302;2024-02-26T10:31:10;10.40;99.90
59847;DHT22;45728;48.788;2.302;2024-02-26T10:33:37;10.40;99.90
59847;DHT22;45728;48.788;2.302;2024-02-26T10:36:07;10.30;99.90
59847;DHT22;45728;48.788;2.302;2024-02-26T10:38:35;10.40;99.90
59847;DHT22;45728;48.788;2.302;2024-02-26T10:41:07;10.40;99.90
59847;DHT22;45728;48.788;2.302;2024-02-26T10:43:38;10.40;99.90
59847;DHT22;45728;48.788;2.302;2024-02-26T10:46:04;10.50;99.90
59847;DHT22;45728;48.788;2.302;2024-02-26T10:48:31;10.60;99.90
59847;DHT22;45728;48.788;2.302;2024-02-26T10:50:57;10.60;99.90
59847;DHT22;45728;48.788;2.302;2024-02-26T10:53:26;10.70;99.90
59847;DHT22;45728;48.788;2.302;2024-02-26T10:56:00;10.70;99.90
59847;DHT22;45728;48.788;2.302;2024-02-26T10:58:27;10.80;99.90
59847;DHT22;45728;48.788;2.302;2024-02-26T11:00:56;10.80;99.90
59847;DHT22;45728;48.788;2.302;2024-02-26T11:03:24;10.80;99.90
59847;DHT22;45728;48.788;2.302;2024-02-26T11:05:50;10.70;99.90
59847;DHT22;45728;48.788;2.302;2024-02-26T11:08:21;10.70;99.90
59847;DHT22;45728;48.788;2.302;2024-02-26T11:10:48;10.70;99.90
59847;DHT22;45728;48.788;2.302;2024-02-26T11:13:18;10.80;99.90
59847;DHT22;45728;48.788;2.302;2024-02-26T11:15:46;10.80;99.90
59847;DHT22;45728;48.788;2.302;2024-02-26T11:18:19;10.90;99.90
59847;DHT22;45728;48.788;2.302;2024-02-26T11:20:45;11.00;99.90
59847;DHT22;45728;48.788;2.302;2024-02-26T11:23:12;11.00;99.90
59847;DHT22;45728;48.788;2.302;2024-02-26T11:25:38;11.10;99.90
59847;DHT22;45728;48.788;2.302;2024-02-26T11:28:15;11.20;99.90
59847;DHT22;45728;48.788;2.302;2024-02-26T11:30:45;11.00;99.90
59847;DHT22;45728;48.788;2.302;2024-02-26T11:33:13;11.00;99.90
59847;DHT22;45728;48.788;2.302;2024-02-26T11:35:40;11.10;99.90
59847;DHT22;45728;48.788;2.302;2024-02-26T11:38:06;11.20;99.90
59847;DHT22;45728;48.788;2.302;2024-02-26T11:40:37;11.20;99.90
59847;DHT22;45728;48.788;2.302;2024-02-26T11:43:05;11.20;99.90
59847;DHT22;45728;48.788;2.302;2024-02-26T11:48:12;11.20;99.90
59847;DHT22;45728;48.788;2.302;2024-02-26T11:50:42;11.00;99.90
59847;DHT22;45728;48.788;2.302;2024-02-26T11:53:23;11.00;99.90
59847;DHT22;45728;48.788;2.302;2024-02-26T11:58:43;10.90;99.90
59847;DHT22;45728;48.788;2.302;2024-02-26T12:01:41;10.30;99.90
59847;DHT22;45728;48.788;2.302;2024-02-26T12:04:19;10.00;99.90
59847;DHT22;45728;48.788;2.302;2024-02-26T12:07:06;9.80;99.90
59847;DHT22;45728;48.788;2.302;2024-02-26T12:09:39;9.60;99.90
59847;DHT22;45728;48.788;2.302;2024-02-26T12:12:10;9.50;99.90
59847;DHT22;45728;48.788;2.302;2024-02-26T12:14:56;9.40;99.90
59847;DHT22;45728;48.788;2.302;2024-02-26T12:17:23;9.20;99.90
59847;DHT22;45728;48.788;2.302;2024-02-26T12:19:50;9.20;99.90
59847;DHT22;45728;48.788;2.302;2024-02-26T12:22:17;9.10;99.90
59847;DHT22;45728;48.788;2.302;2024-02-26T12:24:43;9.10;99.90
59847;DHT22;45728;48.788;2.302;2024-02-26T12:27:09;9.00;99.90
59847;DHT22;45728;48.788;2.302;2024-02-26T12:29:36;9.00;99.90
59847;DHT22;45728;48.788;2.302;2024-02-26T12:32:03;9.00;99.90
59847;DHT22;45728;48.788;2.302;2024-02-26T12:34:31;9.00;99.90
59847;DHT22;45728;48.788;2.302;2024-02-26T12:36:57;9.10;99.90
59847;DHT22;45728;48.788;2.302;2024-02-26T12:39:24;9.00;99.90
59847;DHT22;45728;48.788;2.302;2024-02-26T12:41:50;8.90;99.90
59847;DHT22;45728;48.788;2.302;2024-02-26T12:44:16;9.00;99.90
59847;DHT22;45728;48.788;2.302;2024-02-26T12:46:43;8.90;99.90
59847;DHT22;45728;48.788;2.302;2024-02-26T12:49:15;9.00;99.90
59847;DHT22;45728;48.788;2.302;2024-02-26T12:51:41;8.90;99.90
59847;DHT22;45728;48.788;2.302;2024-02-26T12:54:08;8.90;99.90
59847;DHT22;45728;48.788;2.302;2024-02-26T12:56:35;8.90;99.90
59847;DHT22;45728;48.788;2.302;2024-02-26T12:59:02;8.90;99.90
59847;DHT22;45728;48.788;2.302;2024-02-26T13:01:29;8.80;99.90
59847;DHT22;45728;48.788;2.302;2024-02-26T13:03:56;8.70;99.90
59847;DHT22;45728;48.788;2.302;2024-02-26T13:06:23;8.70;99.90
59847;DHT22;45728;48.788;2.302;2024-02-26T13:08:49;8.60;99.90
59847;DHT22;45728;48.788;2.302;2024-02-26T13:11:15;8.70;99.90
59847;DHT22;45728;48.788;2.302;2024-02-26T13:13:41;8.60;99.90
59847;DHT22;45728;48.788;2.302;2024-02-26T13:16:10;8.60;99.90
59847;DHT22;45728;48.788;2.302;2024-02-26T13:18:39;8.50;99.90
59847;DHT22;45728;48.788;2.302;2024-02-26T13:21:15;8.50;99.90
59847;DHT22;45728;48.788;2.302;2024-02-26T13:23:43;8.50;99.90
59847;DHT22;45728;48.788;2.302;2024-02-26T13:26:14;8.50;99.90
59847;DHT22;45728;48.788;2.302;2024-02-26T13:28:40;8.50;99.90
59847;DHT22;45728;48.788;2.302;2024-02-26T13:31:07;8.50;99.90
59847;DHT22;45728;48.788;2.302;2024-02-26T13:33:34;8.50;99.90
59847;DHT22;45728;48.788;2.302;2024-02-26T13:36:00;8.50;99.90
59847;DHT22;45728;48.788;2.302;2024-02-26T13:38:27;8.50;99.90
59847;DHT22;45728;48.788;2.302;2024-02-26T13:40:54;8.50;99.90
59847;DHT22;45728;48.788;2.302;2024-02-26T13:43:21;8.40;99.90
59847;DHT22;45728;48.788;2.302;2024-02-26T13:45:47;8.40;99.90
59847;DHT22;45728;48.788;2.302;2024-02-26T13:48:14;8.40;99.90
59847;DHT22;45728;48.788;2.302;2024-02-26T13:50:41;8.40;99.90
59847;DHT22;45728;48.788;2.302;2024-02-26T13:53:09;8.40;99.90
59847;DHT22;45728;48.788;2.302;2024-02-26T13:55:35;8.30;99.90
59847;DHT22;45728;48.788;2.302;2024-02-26T13:58:02;8.20;99.90
59847;DHT22;45728;48.788;2.302;2024-02-26T14:00:29;8.20;99.90
59847;DHT22;45728;48.788;2.302;2024-02-26T14:02:58;8.30;99.90
59847;DHT22;45728;48.788;2.302;2024-02-26T14:05:24;8.10;99.90
59847;DHT22;45728;48.788;2.302;2024-02-26T14:07:50;8.20;99.90
59847;DHT22;45728;48.788;2.302;2024-02-26T14:10:16;8.20;99.90
59847;DHT22;45728;48.788;2.302;2024-02-26T14:12:42;8.20;99.90
59847;DHT22;45728;48.788;2.302;2024-02-26T14:15:10;8.20;99.90
59847;DHT22;45728;48.788;2.302;2024-02-26T14:17:36;8.20;99.90
59847;DHT22;45728;48.788;2.302;2024-02-26T14:20:03;8.20;99.90
59847;DHT22;45728;48.788;2.302;2024-02-26T14:22:29;8.20;99.90
59847;DHT22;45728;48.788;2.302;2024-02-26T14:24:59;8.10;99.90
59847;DHT22;45728;48.788;2.302;2024-02-26T14:27:25;8.20;99.90
59847;DHT22;45728;48.788;2.302;2024-02-26T14:29:51;8.20;99.90
59847;DHT22;45728;48.788;2.302;2024-02-26T14:32:17;8.10;99.90
59847;DHT22;45728;48.788;2.302;2024-02-26T14:34:43;8.10;99.90
59847;DHT22;45728;48.788;2.302;2024-02-26T14:37:09;8.10;99.90
59847;DHT22;45728;48.788;2.302;2024-02-26T14:39:37;8.10;99.90
59847;DHT22;45728;48.788;2.302;2024-02-26T14:42:04;8.10;99.90
59847;DHT22;45728;48.788;2.302;2024-02-26T14:44:30;8.00;99.90
59847;DHT22;45728;48.788;2.302;2024-02-26T14:46:58;8.00;99.90
59847;DHT22;45728;48.788;2.302;2024-02-26T14:49:24;8.00;99.90
59847;DHT22;45728;48.788;2.302;2024-02-26T14:51:50;8.00;99.90
59847;DHT22;45728;48.788;2.302;2024-02-26T14:54:16;8.00;99.90
59847;DHT22;45728;48.788;2.302;2024-02-26T14:56:42;7.90;99.90
59847;DHT22;45728;48.788;2.302;2024-02-26T14:59:08;7.90;99.90
59847;DHT22;45728;48.788;2.302;2024-02-26T15:01:34;7.90;99.90
59847;DHT22;45728;48.788;2.302;2024-02-26T15:04:00;8.00;99.90
59847;DHT22;45728;48.788;2.302;2024-02-26T15:06:26;8.00;99.90
59847;DHT22;45728;48.788;2.302;2024-02-26T15:08:52;7.90;99.90
59847;DHT22;45728;48.788;2.302;2024-02-26T15:11:18;7.90;99.90
59847;DHT22;45728;48.788;2.302;2024-02-26T15:13:44;7.90;99.90
59847;DHT22;45728;48.788;2.302;2024-02-26T15:16:17;7.90;99.90
59847;DHT22;45728;48.788;2.302;2024-02-26T15:18:44;7.90;99.90
59847;DHT22;45728;48.788;2.302;2024-02-26T15:21:10;7.90;99.90
59847;DHT22;45728;48.788;2.302;2024-02-26T15:23:39;7.80;99.90
59847;DHT22;45728;48.788;2.302;2024-02-26T15:26:05;7.80;99.90
59847;DHT22;45728;48.788;2.302;2024-02-26T15:28:31;7.70;99.90
59847;DHT22;45728;48.788;2.302;2024-02-26T15:30:57;7.70;99.90
59847;DHT22;45728;48.788;2.302;2024-02-26T15:33:24;7.70;99.90
59847;DHT22;45728;48.788;2.302;2024-02-26T15:35:51;7.70;99.90
59847;DHT22;45728;48.788;2.302;2024-02-26T15:38:17;7.60;99.90
59847;DHT22;45728;48.788;2.302;2024-02-26T15:40:43;7.70;99.90
59847;DHT22;45728;48.788;2.302;2024-02-26T15:43:13;7.60;99.90
59847;DHT22;45728;48.788;2.302;2024-02-26T15:45:39;7.60;99.90
59847;DHT22;45728;48.788;2.302;2024-02-26T15:48:05;7.60;99.90